createdAt,value
2018-05-21T00:01:09.925Z,12.40
2018-05-21T00:03:42.255Z,12.30
2018-05-21T00:06:14.674Z,12.40
2018-05-21T00:08:47.357Z,12.40
2018-05-21T00:11:19.758Z,12.40
2018-05-21T00:13:52.194Z,12.40
2018-05-21T00:16:24.537Z,12.50
2018-05-21T00:18:57.638Z,12.40
2018-05-21T00:21:30.015Z,12.50
2018-05-21T00:24:02.333Z,12.40
2018-05-21T00:26:34.621Z,12.50
2018-05-21T00:29:06.885Z,12.50
2018-05-21T00:31:39.197Z,12.50
2018-05-21T00:34:11.554Z,12.50
2018-05-21T00:36:43.910Z,12.40
2018-05-21T00:39:16.270Z,12.40
2018-05-21T00:41:48.621Z,12.50
2018-05-21T00:44:20.936Z,12.40
2018-05-21T00:46:54.010Z,12.20
2018-05-21T00:49:26.367Z,12.20
2018-05-21T00:51:58.722Z,12.20
2018-05-21T00:54:31.017Z,12.10
2018-05-21T00:57:03.408Z,12.00
2018-05-21T00:59:35.892Z,11.90
2018-05-21T01:02:08.969Z,11.80
2018-05-21T01:04:41.400Z,11.80
2018-05-21T01:07:14.699Z,11.60
2018-05-21T01:09:47.023Z,11.60
2018-05-21T01:12:19.400Z,11.50
2018-05-21T01:14:52.556Z,11.50
2018-05-21T01:17:24.878Z,11.50
2018-05-21T01:19:57.930Z,11.50
2018-05-21T01:22:30.317Z,11.50
2018-05-21T01:25:02.631Z,11.50
2018-05-21T01:27:34.992Z,11.40
2018-05-21T01:30:07.291Z,11.30
2018-05-21T01:32:39.682Z,11.30
2018-05-21T01:35:12.056Z,11.30
2018-05-21T01:37:44.631Z,11.10
2018-05-21T01:40:17.109Z,11.10
2018-05-21T01:42:49.409Z,11.00
2018-05-21T01:45:22.504Z,11.00
2018-05-21T01:47:54.863Z,11.00
2018-05-21T01:50:28.039Z,11.30
2018-05-21T01:53:00.499Z,11.30
2018-05-21T01:55:32.762Z,11.50
2018-05-21T01:58:05.320Z,11.70
2018-05-21T02:00:37.540Z,11.90
2018-05-21T02:03:09.874Z,11.90
2018-05-21T02:05:42.254Z,11.90
2018-05-21T02:08:14.702Z,12.00
2018-05-21T02:10:47.797Z,12.20
2018-05-21T02:13:20.086Z,12.10
2018-05-21T02:15:52.389Z,12.10
2018-05-21T02:18:24.792Z,12.10
2018-05-21T02:20:57.100Z,12.00
2018-05-21T02:23:29.662Z,12.00
2018-05-21T02:26:02.064Z,12.00
2018-05-21T02:28:34.556Z,11.80
2018-05-21T02:31:06.910Z,11.70
2018-05-21T02:33:39.387Z,11.80
2018-05-21T02:36:11.665Z,11.50
2018-05-21T02:38:44.017Z,11.40
2018-05-21T02:41:16.389Z,11.30
2018-05-21T02:43:48.968Z,11.10
2018-05-21T02:46:21.226Z,11.10
2018-05-21T02:48:53.553Z,11.10
2018-05-21T02:51:26.591Z,11.00
2018-05-21T02:53:58.927Z,11.00
2018-05-21T02:56:31.340Z,10.90
2018-05-21T02:59:03.910Z,10.90
2018-05-21T03:01:36.220Z,10.90
2018-05-21T03:04:08.507Z,11.00
2018-05-21T03:06:41.580Z,10.80
2018-05-21T03:09:14.737Z,10.70
2018-05-21T03:11:47.030Z,10.70
2018-05-21T03:14:19.405Z,10.60
2018-05-21T03:16:51.761Z,10.50
2018-05-21T03:19:24.064Z,10.60
2018-05-21T03:21:57.174Z,10.60
2018-05-21T03:24:29.596Z,10.60
2018-05-21T03:27:02.008Z,10.70
2018-05-21T03:29:34.493Z,10.70
2018-05-21T03:32:06.837Z,10.60
2018-05-21T03:34:39.441Z,10.50
2018-05-21T03:37:11.875Z,10.60
2018-05-21T03:39:44.132Z,10.60
2018-05-21T03:42:16.441Z,10.70
2018-05-21T03:44:48.751Z,10.70
2018-05-21T03:47:21.081Z,10.90
2018-05-21T03:49:54.208Z,10.80
2018-05-21T03:52:26.519Z,10.80
2018-05-21T03:54:58.927Z,10.80
2018-05-21T03:57:31.937Z,10.80
2018-05-21T04:00:16.671Z,10.80
2018-05-21T04:03:01.395Z,10.80
2018-05-21T04:05:33.821Z,11.00
2018-05-21T04:08:06.942Z,11.20
2018-05-21T04:10:39.203Z,11.20
2018-05-21T04:13:12.630Z,11.40
2018-05-21T04:15:44.986Z,11.50
2018-05-21T04:18:17.380Z,11.60
2018-05-21T04:20:49.762Z,11.60
2018-05-21T04:23:22.206Z,11.70
2018-05-21T04:25:54.523Z,11.80
2018-05-21T04:28:26.739Z,11.80
2018-05-21T04:30:59.077Z,11.90
2018-05-21T04:33:32.147Z,12.10
2018-05-21T04:36:04.461Z,12.10
2018-05-21T04:38:36.904Z,12.20
2018-05-21T04:41:10.019Z,12.30
2018-05-21T04:43:42.465Z,12.30
2018-05-21T04:46:14.942Z,12.30
2018-05-21T04:48:48.085Z,12.50
2018-05-21T04:51:20.394Z,12.40
2018-05-21T04:53:52.661Z,12.50
2018-05-21T04:56:25.199Z,12.60
2018-05-21T04:58:57.542Z,12.70
2018-05-21T05:01:29.832Z,12.70
2018-05-21T05:04:02.878Z,12.90
2018-05-21T05:06:35.981Z,12.90
2018-05-21T05:09:09.114Z,13.00
2018-05-21T05:11:41.660Z,13.00
2018-05-21T05:14:13.956Z,13.00
2018-05-21T05:16:46.307Z,13.10
2018-05-21T05:19:18.634Z,13.10
2018-05-21T05:21:51.023Z,13.20
2018-05-21T05:24:23.338Z,13.30
2018-05-21T05:26:55.658Z,13.30
2018-05-21T05:29:27.950Z,13.40
2018-05-21T05:32:00.984Z,13.60
2018-05-21T05:34:33.265Z,13.60
2018-05-21T05:37:05.699Z,13.60
2018-05-21T05:39:39.172Z,13.80
2018-05-21T05:42:12.207Z,13.90
2018-05-21T05:44:44.528Z,13.90
2018-05-21T05:47:17.667Z,14.10
2018-05-21T05:49:50.079Z,14.00
2018-05-21T05:52:22.547Z,14.20
2018-05-21T05:54:54.890Z,14.20
2018-05-21T05:57:27.275Z,14.40
2018-05-21T05:59:59.583Z,14.50
2018-05-21T06:02:32.690Z,14.70
2018-05-21T06:05:05.023Z,14.70
2018-05-21T06:07:37.453Z,14.80
2018-05-21T06:10:09.773Z,14.90
2018-05-21T06:12:42.173Z,15.00
2018-05-21T06:15:15.224Z,15.20
2018-05-21T06:17:47.692Z,15.20
2018-05-21T06:20:19.985Z,15.30
2018-05-21T06:25:26.984Z,15.50
2018-05-21T06:27:59.369Z,15.70
2018-05-21T06:30:31.701Z,15.90
2018-05-21T06:33:03.977Z,16.40
2018-05-21T06:35:36.393Z,17.30
2018-05-21T06:38:09.565Z,18.90
2018-05-21T06:40:41.966Z,18.90
2018-05-21T06:43:14.261Z,19.40
2018-05-21T06:45:46.849Z,19.60
2018-05-21T06:48:19.220Z,20.30
2018-05-21T06:50:52.251Z,20.70
2018-05-21T06:53:24.604Z,21.20
2018-05-21T06:55:57.083Z,21.70
2018-05-21T06:58:29.483Z,21.20
2018-05-21T07:01:01.918Z,21.60
2018-05-21T07:03:34.242Z,21.80
2018-05-21T07:06:06.618Z,21.70
2018-05-21T07:08:40.624Z,22.90
2018-05-21T07:11:13.682Z,22.90
2018-05-21T07:13:45.965Z,22.90
2018-05-21T07:16:18.524Z,23.20
2018-05-21T07:18:50.887Z,23.00
2018-05-21T07:21:24.417Z,23.40
2018-05-21T07:24:00.909Z,24.20
2018-05-21T07:26:38.111Z,24.70
2018-05-21T07:29:13.770Z,25.90
2018-05-21T07:31:49.250Z,25.80
2018-05-21T07:34:24.124Z,26.20
2018-05-21T07:36:58.935Z,26.70
2018-05-21T07:39:31.710Z,26.70
2018-05-21T07:42:05.308Z,26.40
2018-05-21T07:44:38.441Z,27.10
2018-05-21T07:47:10.825Z,27.00
2018-05-21T07:49:43.575Z,26.80
2018-05-21T07:52:17.033Z,26.50
2018-05-21T07:54:50.814Z,26.60
2018-05-21T07:57:24.149Z,26.40
2018-05-21T07:59:56.972Z,27.10
2018-05-21T08:02:32.760Z,27.60
2018-05-21T08:05:05.080Z,27.70
2018-05-21T08:07:38.175Z,26.90
2018-05-21T08:10:10.535Z,26.90
2018-05-21T08:12:43.008Z,26.80
2018-05-21T08:15:15.526Z,26.40
2018-05-21T08:17:49.689Z,28.00
2018-05-21T08:20:24.848Z,27.90
2018-05-21T08:22:57.704Z,28.30
2018-05-21T08:25:31.208Z,29.10
2018-05-21T08:28:03.910Z,29.10
2018-05-21T08:30:36.416Z,29.00
2018-05-21T08:33:12.753Z,27.40
2018-05-21T08:35:47.572Z,27.30
2018-05-21T08:38:21.856Z,27.10
2018-05-21T08:43:47.757Z,28.20
2018-05-21T08:46:20.089Z,28.70
2018-05-21T08:48:52.689Z,28.80
2018-05-21T08:51:24.831Z,29.20
2018-05-21T08:53:57.209Z,29.20
2018-05-21T08:56:29.598Z,29.30
2018-05-21T08:59:01.987Z,29.40
2018-05-21T09:01:34.427Z,29.00
2018-05-21T09:04:06.967Z,28.80
2018-05-21T09:06:39.419Z,28.40
2018-05-21T09:09:11.846Z,27.60
2018-05-21T09:11:44.169Z,27.90
2018-05-21T09:14:16.551Z,28.50
2018-05-21T09:16:48.873Z,28.90
2018-05-21T09:19:21.192Z,28.40
2018-05-21T09:21:54.287Z,28.50
2018-05-21T09:24:26.594Z,28.50
2018-05-21T09:26:58.955Z,27.90
2018-05-21T09:29:31.453Z,27.70
2018-05-21T09:32:03.778Z,27.70
2018-05-21T09:34:36.143Z,28.20
2018-05-21T09:37:08.449Z,28.40
2018-05-21T09:39:40.837Z,28.50
2018-05-21T09:42:13.201Z,29.20
2018-05-21T09:44:46.337Z,28.10
2018-05-21T09:47:18.748Z,28.00
2018-05-21T09:49:51.189Z,27.80
2018-05-21T09:52:23.571Z,28.50
2018-05-21T09:54:55.843Z,28.40
2018-05-21T09:57:28.888Z,28.70
2018-05-21T10:00:02.098Z,28.10
2018-05-21T10:02:34.474Z,28.10
2018-05-21T10:05:06.828Z,27.50
2018-05-21T10:07:39.236Z,26.60
2018-05-21T10:10:11.641Z,26.00
2018-05-21T10:12:44.727Z,25.10
2018-05-21T10:15:17.148Z,25.00
2018-05-21T10:17:49.539Z,25.20
2018-05-21T10:20:21.992Z,25.30
2018-05-21T10:22:54.305Z,25.30
2018-05-21T10:25:26.699Z,24.90
2018-05-21T10:27:59.083Z,24.80
2018-05-21T10:30:32.187Z,24.70
2018-05-21T10:33:05.304Z,24.50
2018-05-21T10:35:38.408Z,24.90
2018-05-21T10:38:10.841Z,24.80
2018-05-21T10:40:43.944Z,25.00
2018-05-21T10:43:16.379Z,24.90
2018-05-21T10:45:49.075Z,25.20
2018-05-21T10:48:22.248Z,25.10
2018-05-21T10:50:54.564Z,25.00
2018-05-21T10:53:26.976Z,25.00
2018-05-21T10:55:59.367Z,25.20
2018-05-21T10:58:31.865Z,25.10
2018-05-21T11:01:05.212Z,24.70
2018-05-21T11:03:37.701Z,24.70
2018-05-21T11:06:10.019Z,24.80
2018-05-21T11:08:42.457Z,25.10
2018-05-21T11:11:14.862Z,25.30
2018-05-21T11:13:48.062Z,25.00
2018-05-21T11:16:21.408Z,25.00
2018-05-21T11:18:53.755Z,25.00
2018-05-21T11:21:26.105Z,25.10
2018-05-21T11:23:59.112Z,25.10
2018-05-21T11:26:31.547Z,25.10
2018-05-21T11:29:04.662Z,24.80
2018-05-21T11:31:37.059Z,24.80
2018-05-21T11:34:11.062Z,25.00
2018-05-21T11:36:43.352Z,24.90
2018-05-21T11:39:15.690Z,25.00
2018-05-21T11:41:48.110Z,25.00
2018-05-21T11:44:20.513Z,25.30
2018-05-21T11:46:53.025Z,25.00
2018-05-21T11:49:25.380Z,24.80
2018-05-21T11:51:57.870Z,24.50
2018-05-21T11:54:30.223Z,24.70
2018-05-21T11:57:03.290Z,24.50
2018-05-21T11:59:35.709Z,24.50
2018-05-21T12:02:08.110Z,24.50
2018-05-21T12:04:40.416Z,24.60
2018-05-21T12:07:13.521Z,24.30
2018-05-21T12:09:46.609Z,24.30
2018-05-21T12:12:19.770Z,24.30
2018-05-21T12:14:52.089Z,24.30
2018-05-21T12:17:24.524Z,24.30
2018-05-21T12:19:56.925Z,24.20
2018-05-21T12:22:29.287Z,24.40
2018-05-21T12:25:01.732Z,24.40
2018-05-21T12:27:34.140Z,24.60
2018-05-21T12:30:06.501Z,24.60
2018-05-21T12:32:39.548Z,24.70
2018-05-21T12:35:11.932Z,24.70
2018-05-21T12:37:44.320Z,24.70
2018-05-21T12:40:16.667Z,24.50
2018-05-21T12:42:48.936Z,24.40
2018-05-21T12:45:21.300Z,24.30
2018-05-21T12:47:53.759Z,24.30
2018-05-21T12:50:26.131Z,24.30
2018-05-21T12:52:58.477Z,24.40
2018-05-21T12:55:31.637Z,24.40
2018-05-21T12:58:03.917Z,24.40
2018-05-21T13:00:36.229Z,24.30
2018-05-21T13:03:08.532Z,24.30
2018-05-21T13:05:40.885Z,24.10
2018-05-21T13:08:13.225Z,24.10
2018-05-21T13:10:46.353Z,24.30
2018-05-21T13:13:18.781Z,24.30
2018-05-21T13:15:51.881Z,24.40
2018-05-21T13:18:24.227Z,24.30
2018-05-21T13:20:56.498Z,24.40
2018-05-21T13:23:28.765Z,24.30
2018-05-21T13:26:01.121Z,24.20
2018-05-21T13:28:33.517Z,24.20
2018-05-21T13:31:05.865Z,24.10
2018-05-21T13:33:38.283Z,24.00
2018-05-21T13:36:10.614Z,24.10
2018-05-21T13:38:43.042Z,24.20
2018-05-21T13:41:15.323Z,24.10
2018-05-21T13:43:47.699Z,24.20
2018-05-21T13:46:20.088Z,24.10
2018-05-21T13:48:52.547Z,24.20
2018-05-21T13:51:25.796Z,24.20
2018-05-21T13:53:58.399Z,24.30
2018-05-21T13:56:30.819Z,24.20
2018-05-21T13:59:03.235Z,24.20
2018-05-21T14:01:36.356Z,24.20
2018-05-21T14:04:08.716Z,24.20
2018-05-21T14:06:41.037Z,24.30
2018-05-21T14:09:13.423Z,24.20
2018-05-21T14:11:45.826Z,24.10
2018-05-21T14:14:18.287Z,24.20
2018-05-21T14:16:51.456Z,24.10
2018-05-21T14:19:23.855Z,24.00
2018-05-21T14:21:56.197Z,24.10
2018-05-21T14:24:28.622Z,24.30
2018-05-21T14:27:01.040Z,24.30
2018-05-21T14:29:33.489Z,24.20
2018-05-21T14:32:06.582Z,24.30
2018-05-21T14:34:38.850Z,24.20
2018-05-21T14:37:11.198Z,24.20
2018-05-21T14:39:43.546Z,24.20
2018-05-21T14:42:16.633Z,24.20
2018-05-21T14:44:49.813Z,24.30
2018-05-21T14:47:22.160Z,24.30
2018-05-21T14:49:54.566Z,24.30
2018-05-21T14:52:27.074Z,24.30
2018-05-21T14:54:59.712Z,24.40
2018-05-21T14:57:32.199Z,24.40
2018-05-21T15:00:04.553Z,24.30
2018-05-21T15:02:37.045Z,24.30
2018-05-21T15:05:09.663Z,24.30
2018-05-21T15:07:42.574Z,24.20
2018-05-21T15:10:15.792Z,24.10
2018-05-21T15:12:48.158Z,24.10
2018-05-21T15:15:20.784Z,24.00
2018-05-21T15:17:53.217Z,24.10
2018-05-21T15:20:25.709Z,24.10
2018-05-21T15:22:58.780Z,24.00
2018-05-21T15:25:31.129Z,24.00
2018-05-21T15:28:03.517Z,24.10
2018-05-21T15:30:36.053Z,24.10
2018-05-21T15:33:08.348Z,24.10
2018-05-21T15:35:40.764Z,24.10
2018-05-21T15:38:13.915Z,24.10
2018-05-21T15:40:46.269Z,24.10
2018-05-21T15:43:18.732Z,24.10
2018-05-21T15:45:51.028Z,24.10
2018-05-21T15:48:23.329Z,23.90
2018-05-21T15:50:55.675Z,23.90
2018-05-21T15:53:28.031Z,23.80
2018-05-21T15:56:01.200Z,23.80
2018-05-21T15:58:33.513Z,23.80
2018-05-21T16:01:05.943Z,23.80
2018-05-21T16:03:38.316Z,23.80
2018-05-21T16:06:10.649Z,23.80
2018-05-21T16:08:42.949Z,23.90
2018-05-21T16:11:15.271Z,23.90
2018-05-21T16:13:47.571Z,23.90
2018-05-21T16:16:20.677Z,23.80
2018-05-21T16:18:53.011Z,23.80
2018-05-21T16:21:25.341Z,23.80
2018-05-21T16:23:58.452Z,23.80
2018-05-21T16:26:30.804Z,23.80
2018-05-21T16:29:03.195Z,23.80
2018-05-21T16:31:35.524Z,23.80
2018-05-21T16:34:08.678Z,23.80
2018-05-21T16:36:41.068Z,23.80
2018-05-21T16:39:13.428Z,23.80
2018-05-21T16:41:45.826Z,23.80
2018-05-21T16:44:18.174Z,23.80
2018-05-21T16:46:50.589Z,23.80
2018-05-21T16:49:23.709Z,23.70
2018-05-21T16:51:56.061Z,23.70
2018-05-21T16:54:28.370Z,23.70
2018-05-21T16:57:00.794Z,23.70
2018-05-21T16:59:33.946Z,23.70
2018-05-21T17:02:06.235Z,23.60
2018-05-21T17:04:38.595Z,23.60
2018-05-21T17:07:11.039Z,23.50
2018-05-21T17:09:43.421Z,23.40
2018-05-21T17:12:15.814Z,23.50
2018-05-21T17:14:48.158Z,23.40
2018-05-21T17:17:20.607Z,23.40
2018-05-21T17:19:52.965Z,23.40
2018-05-21T17:22:26.040Z,23.30
2018-05-21T17:24:59.221Z,23.30
2018-05-21T17:27:31.600Z,23.30
2018-05-21T17:30:03.850Z,23.30
2018-05-21T17:32:36.256Z,23.30
2018-05-21T17:35:09.428Z,23.20
2018-05-21T17:37:41.668Z,23.20
2018-05-21T17:40:13.946Z,23.20
2018-05-21T17:42:46.275Z,23.20
2018-05-21T17:45:18.556Z,23.20
2018-05-21T17:47:51.003Z,23.10
2018-05-21T17:50:24.208Z,23.00
2018-05-21T17:52:57.281Z,22.90
2018-05-21T17:55:29.601Z,22.90
2018-05-21T17:58:01.981Z,23.00
2018-05-21T18:00:34.269Z,22.90
2018-05-21T18:03:06.597Z,22.90
2018-05-21T18:05:39.032Z,22.90
2018-05-21T18:08:11.333Z,22.80
2018-05-21T18:10:43.641Z,22.80
2018-05-21T18:13:15.981Z,22.70
2018-05-21T18:15:48.356Z,22.50
2018-05-21T18:18:20.786Z,22.20
2018-05-21T18:20:53.137Z,22.00
2018-05-21T18:23:32.477Z,21.80
2018-05-21T18:26:04.788Z,21.90
2018-05-21T18:28:37.262Z,22.00
2018-05-21T18:31:10.325Z,21.90
2018-05-21T18:33:42.651Z,21.90
2018-05-21T18:36:15.057Z,22.00
2018-05-21T18:38:47.437Z,21.80
2018-05-21T18:41:19.726Z,21.80
2018-05-21T18:43:52.032Z,21.80
2018-05-21T18:46:24.437Z,21.70
2018-05-21T18:48:56.719Z,21.70
2018-05-21T18:51:29.079Z,21.70
2018-05-21T18:54:01.563Z,21.50
2018-05-21T18:56:33.932Z,21.40
2018-05-21T18:59:06.337Z,21.30
2018-05-21T19:01:39.500Z,21.20
2018-05-21T19:04:11.881Z,21.10
2018-05-21T19:06:44.160Z,21.20
2018-05-21T19:09:16.454Z,21.20
2018-05-21T19:11:49.586Z,21.10
2018-05-21T19:14:21.909Z,21.10
2018-05-21T19:16:54.957Z,20.80
2018-05-21T19:19:27.358Z,20.80
2018-05-21T19:21:59.709Z,20.70
2018-05-21T19:24:32.113Z,20.50
2018-05-21T19:27:04.389Z,20.50
2018-05-21T19:29:37.549Z,20.00
2018-05-21T19:32:09.899Z,20.00
2018-05-21T19:34:42.416Z,19.80
2018-05-21T19:37:14.847Z,19.60
2018-05-21T19:39:47.269Z,19.50
2018-05-21T19:42:20.401Z,19.10
2018-05-21T19:44:52.731Z,19.10
2018-05-21T19:47:25.061Z,18.90
2018-05-21T19:49:57.349Z,18.60
2018-05-21T19:52:29.545Z,18.40
2018-05-21T19:55:01.832Z,18.20
2018-05-21T19:57:34.100Z,18.10
2018-05-21T20:00:06.465Z,18.00
2018-05-21T20:02:39.620Z,17.90
2018-05-21T20:05:11.923Z,17.90
2018-05-21T20:07:44.997Z,17.70
2018-05-21T20:10:17.356Z,17.60
2018-05-21T20:12:49.671Z,17.50
2018-05-21T20:15:22.840Z,17.30
2018-05-21T20:17:55.150Z,17.30
2018-05-21T20:20:39.981Z,17.40
2018-05-21T20:23:12.310Z,17.20
2018-05-21T20:25:44.609Z,17.10
2018-05-21T20:28:16.886Z,17.10
2018-05-21T20:30:49.367Z,16.90
2018-05-21T20:33:22.555Z,16.60
2018-05-21T20:35:54.957Z,16.60
2018-05-21T20:38:27.249Z,16.60
2018-05-21T20:40:59.611Z,16.50
2018-05-21T20:43:31.981Z,16.50
2018-05-21T20:46:04.362Z,16.60
2018-05-21T20:48:36.765Z,16.50
2018-05-21T20:51:09.042Z,16.50
2018-05-21T20:53:41.301Z,16.50
2018-05-21T20:56:13.720Z,16.50
2018-05-21T20:58:46.761Z,16.40
2018-05-21T21:01:19.023Z,16.40
2018-05-21T21:03:51.374Z,16.50
2018-05-21T21:06:23.697Z,16.40
2018-05-21T21:08:56.071Z,16.20
2018-05-21T21:11:28.342Z,16.10
2018-05-21T21:14:00.709Z,16.00
2018-05-21T21:16:33.115Z,15.90
2018-05-21T21:19:06.251Z,15.90
2018-05-21T21:21:38.729Z,15.90
2018-05-21T21:24:11.027Z,15.90
2018-05-21T21:26:44.043Z,15.80
2018-05-21T21:29:16.405Z,15.80
2018-05-21T21:31:49.565Z,15.80
2018-05-21T21:34:21.891Z,15.80
2018-05-21T21:36:54.185Z,15.80
2018-05-21T21:39:26.452Z,15.80
2018-05-21T21:41:58.768Z,15.80
2018-05-21T21:44:32.042Z,15.70
2018-05-21T21:47:05.124Z,15.60
2018-05-21T21:49:37.438Z,15.60
2018-05-21T21:52:09.795Z,15.50
2018-05-21T21:54:42.106Z,15.40
2018-05-21T21:57:14.478Z,15.30
2018-05-21T21:59:46.765Z,15.20
2018-05-21T22:02:19.195Z,15.10
2018-05-21T22:04:52.319Z,15.20
2018-05-21T22:07:24.747Z,15.20
2018-05-21T22:09:57.086Z,15.10
2018-05-21T22:12:29.496Z,15.10
2018-05-21T22:15:01.892Z,15.10
2018-05-21T22:17:34.220Z,15.10
2018-05-21T22:20:06.485Z,15.10
2018-05-21T22:22:38.874Z,15.00
2018-05-21T22:25:11.245Z,15.00
2018-05-21T22:27:43.602Z,14.90
2018-05-21T22:30:15.967Z,15.00
2018-05-21T22:32:48.243Z,14.90
2018-05-21T22:35:20.630Z,15.00
2018-05-21T22:37:53.105Z,15.00
2018-05-21T22:40:25.414Z,15.00
2018-05-21T22:42:58.572Z,15.00
2018-05-21T22:45:30.867Z,15.00
2018-05-21T22:48:04.031Z,15.00
2018-05-21T22:50:36.345Z,15.00
2018-05-21T22:53:08.680Z,15.00
2018-05-21T22:55:41.103Z,15.00
2018-05-21T22:58:14.228Z,15.10
2018-05-21T23:00:46.476Z,15.10
2018-05-21T23:03:18.927Z,15.10
2018-05-21T23:05:51.322Z,15.10
2018-05-21T23:08:23.647Z,15.00
2018-05-21T23:10:56.660Z,14.80
2018-05-21T23:13:28.962Z,14.80
2018-05-21T23:16:01.354Z,14.80
2018-05-21T23:18:33.753Z,14.80
2018-05-21T23:21:06.861Z,14.80
2018-05-21T23:23:39.440Z,14.80
2018-05-21T23:26:11.671Z,14.70
2018-05-21T23:28:43.975Z,14.80
2018-05-21T23:31:16.301Z,14.90
2018-05-21T23:33:48.603Z,14.60
2018-05-21T23:36:21.690Z,14.50
2018-05-21T23:38:54.818Z,14.50
2018-05-21T23:41:27.844Z,14.60
2018-05-21T23:44:00.180Z,14.60
2018-05-21T23:46:32.483Z,14.80
2018-05-21T23:49:04.860Z,14.90
2018-05-21T23:51:37.195Z,14.90
2018-05-21T23:54:09.538Z,14.90
2018-05-21T23:56:42.703Z,14.70
2018-05-21T23:59:15.150Z,14.60
